createdAt,value
2019-01-02T03:14:18.581Z,93.75
2019-01-02T03:15:18.335Z,93.08
2019-01-02T03:16:18.329Z,91.85
2019-01-02T03:17:18.330Z,91.00
2019-01-02T03:18:18.310Z,91.66
2019-01-02T03:19:18.318Z,91.66
2019-01-02T03:20:18.278Z,91.75
2019-01-02T03:21:18.274Z,91.85
2019-01-02T03:22:18.290Z,93.18
2019-01-02T03:23:18.257Z,90.71
2019-01-02T03:24:18.244Z,91.19
2019-01-02T03:25:18.258Z,91.66
2019-01-02T03:26:18.238Z,90.62
2019-01-02T03:27:18.258Z,91.19
2019-01-02T03:28:18.200Z,91.85
2019-01-02T03:29:18.187Z,91.28
2019-01-02T03:30:18.224Z,91.66
2019-01-02T03:31:18.232Z,91.75
2019-01-02T03:32:18.289Z,91.09
2019-01-02T03:33:18.161Z,91.28
2019-01-02T03:34:18.146Z,91.28
2019-01-02T03:35:18.156Z,91.19
2019-01-02T03:36:18.150Z,90.33
2019-01-02T03:37:18.118Z,90.43
2019-01-02T03:38:18.121Z,91.66
2019-01-02T03:39:18.098Z,89.48
2019-01-02T03:40:18.133Z,90.52
2019-01-02T03:41:18.094Z,92.04
2019-01-02T03:42:18.102Z,91.19
2019-01-02T03:43:18.065Z,91.28
2019-01-02T03:44:18.063Z,90.43
2019-01-02T03:45:18.039Z,89.25
2019-01-02T03:46:18.034Z,90.76
2019-01-02T03:47:18.018Z,91.24
2019-01-02T03:48:18.005Z,90.86
2019-01-02T03:49:18.016Z,89.53
2019-01-02T03:50:17.992Z,88.62
2019-01-02T03:51:18.015Z,88.77
2019-01-02T03:52:17.953Z,90.10
2019-01-02T03:53:17.972Z,89.15
2019-01-02T03:54:17.974Z,90.14
2019-01-02T03:55:17.942Z,87.92
2019-01-02T03:56:17.962Z,88.77
2019-01-02T03:57:17.977Z,88.10
2019-01-02T03:58:17.954Z,89.34
2019-01-02T03:59:17.916Z,87.82
2019-01-02T04:00:17.904Z,87.63
2019-01-02T04:01:17.900Z,87.73
2019-01-02T04:02:17.886Z,87.73
2019-01-02T04:03:17.880Z,88.87
2019-01-02T04:04:17.892Z,89.43
2019-01-02T04:05:17.841Z,88.29
2019-01-02T04:06:17.828Z,86.68
2019-01-02T04:07:26.460Z,87.35
2019-01-02T04:09:22.334Z,89.15
2019-01-02T04:10:22.295Z,89.91
2019-01-02T04:11:22.297Z,88.87
2019-01-02T04:12:22.287Z,89.62
2019-01-02T04:13:23.197Z,87.63
2019-01-02T04:14:22.266Z,87.54
2019-01-02T04:15:22.244Z,87.63
2019-01-02T04:16:22.236Z,88.58
2019-01-02T04:17:22.225Z,87.63
2019-01-02T04:18:22.241Z,89.34
2019-01-02T04:19:22.216Z,88.29
2019-01-02T04:20:22.202Z,90.14
2019-01-02T04:21:22.200Z,89.25
2019-01-02T04:22:22.187Z,89.06
2019-01-02T04:23:22.174Z,87.49
2019-01-02T04:24:22.184Z,87.25
2019-01-02T04:25:22.176Z,89.34
2019-01-02T04:26:22.210Z,88.01
2019-01-02T04:27:22.179Z,87.63
2019-01-02T04:28:22.175Z,88.77
2019-01-02T04:29:22.120Z,89.34
2019-01-02T04:30:22.124Z,88.77
2019-01-02T04:31:22.099Z,88.77
2019-01-02T04:32:22.103Z,90.10
2019-01-02T04:33:22.132Z,90.48
2019-01-02T04:34:22.124Z,89.76
2019-01-02T04:35:22.073Z,89.81
2019-01-02T04:36:22.062Z,88.58
2019-01-02T04:37:22.104Z,89.06
2019-01-02T04:38:22.092Z,88.29
2019-01-02T04:39:22.039Z,87.92
2019-01-02T04:40:22.030Z,87.16
2019-01-02T04:41:22.064Z,87.82
2019-01-02T04:42:22.061Z,87.92
2019-01-02T04:43:29.783Z,88.96
2019-01-02T04:45:26.594Z,89.15
2019-01-02T04:46:26.534Z,90.29
2019-01-02T04:47:26.500Z,90.38
2019-01-02T04:48:26.519Z,90.10
2019-01-02T04:49:26.489Z,91.05
2019-01-02T04:50:26.511Z,90.29
2019-01-02T04:51:26.496Z,89.15
2019-01-02T04:52:26.494Z,88.20
2019-01-02T04:53:26.437Z,87.82
2019-01-02T04:54:26.427Z,87.63
2019-01-02T04:55:26.463Z,87.73
2019-01-02T04:56:26.416Z,88.39
2019-01-02T04:57:26.468Z,88.20
2019-01-02T04:58:26.499Z,87.25
2019-01-02T04:59:26.417Z,88.29
2019-01-02T05:00:26.404Z,87.35
2019-01-02T05:01:26.393Z,87.06
2019-01-02T05:02:26.359Z,87.63
2019-01-02T05:03:26.352Z,87.16
2019-01-02T05:04:26.375Z,87.54
2019-01-02T05:05:26.369Z,87.25
2019-01-02T05:06:26.321Z,86.78
2019-01-02T05:07:26.317Z,86.78
2019-01-02T05:08:26.322Z,87.54
2019-01-02T05:09:26.353Z,87.54
2019-01-02T05:12:06.764Z,86.30
2019-01-02T05:13:06.706Z,86.21
2019-01-02T05:14:06.707Z,86.21
2019-01-02T05:15:06.669Z,86.21
2019-01-02T05:16:06.662Z,86.30
2019-01-02T05:17:06.646Z,86.49
2019-01-02T05:18:06.633Z,85.83
2019-01-02T05:19:06.638Z,86.78
2019-01-02T05:20:06.609Z,86.87
2019-01-02T05:21:06.615Z,85.93
2019-01-02T05:22:06.614Z,85.93
2019-01-02T05:23:06.643Z,86.30
2019-01-02T05:24:06.580Z,86.49
2019-01-02T05:25:06.581Z,86.59
2019-01-02T05:26:06.573Z,86.59
2019-01-02T05:27:06.606Z,86.68
2019-01-02T05:28:06.580Z,86.21
2019-01-02T05:29:06.587Z,86.49
2019-01-02T05:30:06.526Z,86.78
2019-01-02T05:31:06.505Z,86.40
2019-01-02T05:32:06.496Z,86.87
2019-01-02T05:33:06.490Z,86.49
2019-01-02T05:34:15.158Z,87.25
2019-01-02T05:36:18.709Z,87.45
2019-01-02T05:37:10.952Z,86.97
2019-01-02T05:39:15.453Z,85.83
2019-01-02T05:40:25.931Z,86.30
2019-01-02T05:42:19.974Z,86.68
2019-01-02T05:43:19.893Z,86.87
2019-01-02T05:45:24.374Z,86.87
2019-01-02T05:46:24.376Z,86.87
2019-01-02T05:47:33.003Z,87.35
2019-01-02T05:49:28.823Z,86.87
2019-01-02T05:50:28.768Z,86.87
2019-01-02T05:51:28.814Z,86.97
2019-01-02T05:52:28.800Z,86.68
2019-01-02T05:53:28.771Z,86.87
2019-01-02T05:54:28.751Z,86.87
2019-01-02T05:55:28.753Z,86.87
2019-01-02T05:56:28.716Z,87.16
2019-01-02T05:57:28.715Z,86.11
2019-01-02T05:58:28.725Z,86.21
2019-01-02T05:59:28.690Z,86.59
2019-01-02T06:00:28.721Z,86.49
2019-01-02T06:01:28.705Z,86.59
2019-01-02T06:02:28.682Z,87.06
2019-01-02T06:03:28.655Z,87.54
2019-01-02T06:04:28.644Z,87.25
2019-01-02T06:05:28.678Z,87.73
2019-01-02T06:06:28.647Z,86.87
2019-01-02T06:07:28.656Z,87.54
2019-01-02T06:08:28.632Z,87.25
2019-01-02T06:09:28.650Z,87.06
2019-01-02T06:10:28.610Z,87.06
2019-01-02T06:11:28.592Z,86.68
2019-01-02T06:12:28.784Z,86.49
2019-01-02T06:13:28.585Z,86.78
2019-01-02T06:14:28.573Z,87.35
2019-01-02T06:15:28.585Z,87.63
2019-01-02T06:16:28.529Z,87.35
2019-01-02T06:17:28.566Z,87.73
2019-01-02T06:18:28.610Z,87.82
2019-01-02T06:19:28.505Z,87.63
2019-01-02T06:20:28.530Z,88.01
2019-01-02T06:21:28.477Z,87.16
2019-01-02T06:22:28.475Z,86.68
2019-01-02T06:23:28.487Z,87.35
2019-01-02T06:24:28.484Z,88.10
2019-01-02T06:25:28.494Z,88.96
2019-01-02T06:26:28.461Z,88.58
2019-01-02T06:27:28.455Z,88.10
2019-01-02T06:28:28.672Z,88.39
2019-01-02T06:29:28.424Z,88.87
2019-01-02T06:30:28.429Z,88.68
2019-01-02T06:31:28.431Z,88.77
2019-01-02T06:32:28.418Z,88.77
2019-01-02T06:33:28.428Z,88.77
2019-01-02T06:34:28.440Z,88.58
2019-01-02T06:35:28.444Z,88.58
2019-01-02T06:36:28.496Z,89.25
2019-01-02T06:37:28.385Z,90.10
2019-01-02T06:38:28.382Z,90.19
2019-01-02T06:39:28.439Z,89.43
2019-01-02T06:40:28.391Z,89.15
2019-01-02T06:41:28.379Z,89.62
2019-01-02T06:42:28.403Z,88.58
2019-01-02T06:43:28.409Z,88.29
2019-01-02T06:44:28.374Z,88.77
2019-01-02T06:45:28.348Z,87.63
2019-01-02T06:46:28.250Z,87.82
2019-01-02T06:47:28.466Z,88.29
2019-01-02T06:48:28.225Z,88.10
2019-01-02T06:49:28.223Z,87.63
2019-01-02T06:50:28.260Z,88.29
2019-01-02T06:51:28.231Z,88.39
2019-01-02T06:52:28.227Z,87.63
2019-01-02T06:53:28.189Z,87.73
2019-01-02T06:54:28.170Z,87.63
2019-01-02T06:55:28.196Z,87.54
2019-01-02T06:56:28.187Z,88.10
2019-01-02T06:57:28.159Z,88.01
2019-01-02T06:58:28.135Z,87.45
2019-01-02T06:59:28.134Z,87.73
2019-01-02T07:00:28.136Z,87.63
2019-01-02T07:01:28.106Z,87.25
2019-01-02T07:02:28.147Z,87.35
2019-01-02T07:03:28.096Z,87.16
2019-01-02T07:04:28.108Z,87.54
2019-01-02T07:05:28.095Z,87.25
2019-01-02T07:06:28.075Z,87.63
2019-01-02T07:07:31.169Z,86.78
2019-01-02T07:08:28.072Z,87.54
2019-01-02T07:09:28.089Z,87.25
2019-01-02T07:10:28.049Z,88.01
2019-01-02T07:11:28.015Z,87.35
2019-01-02T07:12:28.000Z,87.25
2019-01-02T07:13:28.026Z,86.78
2019-01-02T07:14:28.003Z,86.87
2019-01-02T07:15:27.988Z,86.78
2019-01-02T07:16:27.970Z,86.40
2019-01-02T07:17:27.950Z,86.97
2019-01-02T07:18:27.982Z,87.06
2019-01-02T07:19:27.957Z,86.68
2019-01-02T07:20:27.920Z,87.25
2019-01-02T07:21:27.980Z,87.82
2019-01-02T07:22:27.916Z,87.35
2019-01-02T07:23:27.955Z,87.25
2019-01-02T07:24:27.885Z,87.25
2019-01-02T07:25:27.893Z,87.45
2019-01-02T07:26:27.872Z,87.25
2019-01-02T07:27:27.920Z,87.45
2019-01-02T07:28:27.879Z,87.45
2019-01-02T07:29:27.902Z,86.68
2019-01-02T07:30:27.838Z,86.97
2019-01-02T07:31:27.827Z,86.68
2019-01-02T07:32:27.849Z,86.78
2019-01-02T07:33:27.812Z,86.87
2019-01-02T07:34:27.795Z,86.97
2019-01-02T07:35:27.798Z,86.59
2019-01-02T07:36:27.811Z,86.87
2019-01-02T07:37:27.860Z,86.11
2019-01-02T07:38:27.746Z,86.02
2019-01-02T07:39:27.744Z,86.11
2019-01-02T07:40:27.748Z,86.30
2019-01-02T07:41:27.759Z,86.21
2019-01-02T07:42:27.729Z,86.11
2019-01-02T07:43:27.713Z,86.21
2019-01-02T07:44:27.689Z,86.11
2019-01-02T07:45:27.707Z,86.30
2019-01-02T07:46:27.686Z,86.49
2019-01-02T07:47:27.663Z,86.30
2019-01-02T07:48:27.638Z,86.30
2019-01-02T07:49:27.757Z,85.64
2019-01-02T07:50:27.653Z,85.64
2019-01-02T07:51:27.636Z,85.93
2019-01-02T07:52:27.613Z,86.21
2019-01-02T07:53:27.594Z,86.59
2019-01-02T07:54:27.604Z,86.11
2019-01-02T07:55:27.574Z,86.59
2019-01-02T07:56:27.579Z,86.59
2019-01-02T07:57:27.588Z,86.40
2019-01-02T07:58:27.566Z,86.68
2019-01-02T07:59:27.543Z,86.30
2019-01-02T08:00:27.522Z,86.11
2019-01-02T08:01:27.518Z,86.02
2019-01-02T08:02:27.534Z,86.11
2019-01-02T08:03:27.511Z,86.11
2019-01-02T08:04:27.513Z,86.78
2019-01-02T08:05:27.487Z,86.49
2019-01-02T08:06:27.515Z,86.78
2019-01-02T08:07:27.458Z,86.40
2019-01-02T08:08:27.445Z,86.11
2019-01-02T08:09:27.437Z,86.11
2019-01-02T08:10:27.494Z,86.59
2019-01-02T08:11:27.475Z,86.59
2019-01-02T08:12:27.444Z,86.30
2019-01-02T08:13:27.430Z,86.59
2019-01-02T08:14:27.390Z,86.87
2019-01-02T08:15:27.449Z,86.78
2019-01-02T08:16:27.403Z,86.78
2019-01-02T08:17:27.412Z,86.78
2019-01-02T08:18:27.363Z,86.78
2019-01-02T08:19:27.359Z,87.45
2019-01-02T08:20:27.377Z,86.97
2019-01-02T08:21:27.321Z,86.78
2019-01-02T08:22:27.323Z,86.87
2019-01-02T08:23:27.323Z,86.97
2019-01-02T08:24:27.323Z,87.45
2019-01-02T08:25:27.277Z,87.35
2019-01-02T08:26:27.270Z,87.35
2019-01-02T08:27:27.262Z,87.25
2019-01-02T08:28:27.252Z,87.45
2019-01-02T08:29:27.257Z,88.29
2019-01-02T08:30:27.302Z,87.35
2019-01-02T08:31:27.223Z,87.73
2019-01-02T08:32:27.220Z,87.54
2019-01-02T08:33:27.195Z,87.45
2019-01-02T08:34:27.198Z,87.73
2019-01-02T08:35:27.220Z,87.25
2019-01-02T08:36:27.190Z,87.25
2019-01-02T08:37:27.182Z,86.87
2019-01-02T08:38:27.193Z,87.06
2019-01-02T08:39:27.152Z,87.35
2019-01-02T08:40:27.157Z,86.97
2019-01-02T08:41:27.162Z,87.06
2019-01-02T08:42:27.123Z,86.68
2019-01-02T08:43:27.141Z,86.97
2019-01-02T08:44:27.145Z,87.25
2019-01-02T08:45:27.098Z,87.25
2019-01-02T08:46:27.089Z,87.45
2019-01-02T08:47:27.081Z,87.16
2019-01-02T08:48:27.057Z,86.87
2019-01-02T08:49:27.118Z,87.25
2019-01-02T08:50:27.044Z,87.25
2019-01-02T08:51:27.099Z,86.97
2019-01-02T08:52:27.051Z,86.87
2019-01-02T08:53:27.025Z,87.25
2019-01-02T08:54:27.032Z,86.97
2019-01-02T08:55:27.027Z,87.45
2019-01-02T08:56:27.075Z,87.35
2019-01-02T08:57:26.960Z,86.97
2019-01-02T08:58:26.968Z,87.45
2019-01-02T08:59:35.690Z,87.25
2019-01-02T09:01:31.433Z,86.87
2019-01-02T09:02:31.423Z,86.49
2019-01-02T09:03:31.404Z,87.35
2019-01-02T09:04:31.429Z,87.54
2019-01-02T09:05:31.461Z,86.78
2019-01-02T09:06:31.450Z,86.78
2019-01-02T09:07:31.374Z,86.87
2019-01-02T09:08:31.357Z,86.87
2019-01-02T09:09:31.337Z,86.87
2019-01-02T09:10:31.312Z,86.78
2019-01-02T09:11:31.342Z,86.68
2019-01-02T09:12:31.311Z,86.87
2019-01-02T09:13:31.314Z,87.25
2019-01-02T09:14:31.295Z,87.45
2019-01-02T09:15:31.268Z,87.45
2019-01-02T09:16:31.303Z,87.45
2019-01-02T09:17:31.248Z,87.06
2019-01-02T09:18:31.265Z,87.45
2019-01-02T09:19:31.273Z,86.87
2019-01-02T09:20:31.219Z,87.54
2019-01-02T09:21:31.206Z,86.78
2019-01-02T09:22:31.207Z,86.97
2019-01-02T09:23:31.195Z,87.45
2019-01-02T09:24:31.198Z,87.45
2019-01-02T09:25:31.186Z,87.35
2019-01-02T09:26:31.188Z,87.54
2019-01-02T09:27:31.210Z,87.35
2019-01-02T09:28:31.155Z,87.82
2019-01-02T09:29:31.162Z,87.63
2019-01-02T09:30:31.133Z,87.63
2019-01-02T09:31:31.147Z,87.92
2019-01-02T09:32:31.108Z,87.82
2019-01-02T09:33:31.104Z,87.63
2019-01-02T09:34:31.094Z,87.54
2019-01-02T09:35:31.090Z,87.35
2019-01-02T09:36:31.079Z,87.35
2019-01-02T09:37:31.073Z,86.97
2019-01-02T09:38:31.064Z,86.87
2019-01-02T09:39:31.040Z,86.68
2019-01-02T09:40:40.548Z,87.63
2019-01-02T09:42:35.613Z,87.35
2019-01-02T09:43:35.531Z,87.35
2019-01-02T09:44:35.555Z,87.63
2019-01-02T09:45:35.551Z,87.45
2019-01-02T09:46:35.610Z,87.45
2019-01-02T09:47:35.492Z,87.35
2019-01-02T09:48:35.532Z,87.16
2019-01-02T09:49:44.311Z,87.25
2019-01-02T09:51:39.978Z,87.49
2019-01-02T09:52:39.940Z,87.73
2019-01-02T09:53:39.920Z,87.68
2019-01-02T09:54:39.905Z,87.39
2019-01-02T09:55:39.959Z,87.73
2019-01-02T09:56:39.862Z,87.68
2019-01-02T09:57:39.868Z,87.49
2019-01-02T09:58:39.876Z,87.49
2019-01-02T09:59:39.865Z,87.68
2019-01-02T10:00:39.842Z,87.68
2019-01-02T10:01:39.817Z,87.87
2019-01-02T10:02:39.834Z,87.77
2019-01-02T10:03:39.799Z,87.77
2019-01-02T10:04:39.793Z,87.96
2019-01-02T10:05:39.847Z,90.43
2019-01-02T10:06:39.825Z,92.94
2019-01-02T10:07:39.911Z,88.86
2019-01-02T10:08:39.771Z,87.43
2019-01-02T10:09:39.847Z,87.34
2019-01-02T10:10:39.759Z,87.05
2019-01-02T10:11:39.748Z,86.96
2019-01-02T10:12:39.720Z,86.96
2019-01-02T10:13:39.708Z,86.30
2019-01-02T10:14:39.741Z,86.25
2019-01-02T10:15:39.713Z,87.01
2019-01-02T10:16:39.696Z,87.11
2019-01-02T10:17:39.701Z,87.11
2019-01-02T10:18:39.663Z,86.82
2019-01-02T10:19:39.671Z,87.49
2019-01-02T10:20:43.873Z,88.24
2019-01-02T10:21:39.646Z,87.96
2019-01-02T10:22:39.631Z,87.77
2019-01-02T10:23:39.659Z,88.06
2019-01-02T10:24:48.251Z,88.06
2019-01-02T10:26:44.108Z,87.87
2019-01-02T10:27:44.100Z,88.53
2019-01-02T10:28:44.081Z,88.81
2019-01-02T10:29:44.067Z,88.81
2019-01-02T10:30:44.080Z,88.34
2019-01-02T10:31:44.048Z,88.24
2019-01-02T10:32:44.045Z,88.34
2019-01-02T10:33:44.039Z,88.91
2019-01-02T10:34:44.015Z,88.72
2019-01-02T10:35:44.002Z,89.00
2019-01-02T10:36:43.995Z,88.81
2019-01-02T10:37:44.006Z,88.81
2019-01-02T10:38:43.988Z,88.81
2019-01-02T10:39:43.979Z,88.91
2019-01-02T10:40:43.980Z,89.48
2019-01-02T10:41:43.960Z,89.20
2019-01-02T10:42:43.934Z,89.48
2019-01-02T10:43:43.925Z,89.10
2019-01-02T10:44:43.907Z,88.81
2019-01-02T10:45:43.948Z,89.00
2019-01-02T10:46:43.916Z,89.67
2019-01-02T10:47:43.922Z,90.14
2019-01-02T10:48:43.926Z,89.95
2019-01-02T10:49:43.896Z,89.67
2019-01-02T10:50:43.855Z,89.00
2019-01-02T10:51:44.001Z,89.10
2019-01-02T10:52:43.850Z,89.00
2019-01-02T10:53:43.877Z,88.72
2019-01-02T10:54:43.876Z,88.81
2019-01-02T10:55:43.829Z,88.91
2019-01-02T10:56:43.792Z,89.10
2019-01-02T10:57:43.801Z,88.62
2019-01-02T10:58:43.796Z,89.10
2019-01-02T10:59:43.809Z,88.81
2019-01-02T11:00:43.785Z,89.00
2019-01-02T11:01:43.769Z,88.62
2019-01-02T11:02:43.762Z,88.72
2019-01-02T11:03:43.760Z,88.91
2019-01-02T11:04:43.740Z,88.62
2019-01-02T11:05:43.756Z,88.81
2019-01-02T11:06:43.705Z,88.62
2019-01-02T11:07:43.698Z,88.62
2019-01-02T11:08:43.690Z,88.24
2019-01-02T11:09:43.677Z,89.00
2019-01-02T11:10:43.680Z,89.72
2019-01-02T11:11:43.658Z,88.48
2019-01-02T11:12:43.663Z,87.05
2019-01-02T11:13:43.639Z,87.34
2019-01-02T11:14:43.630Z,87.72
2019-01-02T11:15:43.616Z,87.43
2019-01-02T11:16:43.632Z,87.05
2019-01-02T11:17:43.607Z,86.87
2019-01-02T11:18:43.636Z,86.68
2019-01-02T11:19:43.577Z,87.15
2019-01-02T11:20:43.578Z,85.91
2019-01-02T11:21:43.587Z,85.35
2019-01-02T11:22:43.563Z,88.10
2019-01-02T11:23:43.580Z,85.53
2019-01-02T11:24:43.552Z,85.06
2019-01-02T11:25:43.513Z,85.16
2019-01-02T11:26:43.713Z,85.16
2019-01-02T11:27:43.516Z,85.35
2019-01-02T11:28:43.563Z,84.87
2019-01-02T11:29:43.524Z,84.78
2019-01-02T11:30:43.518Z,85.44
2019-01-02T11:31:43.523Z,85.06
2019-01-02T11:32:44.111Z,84.49
2019-01-02T11:33:43.484Z,84.49
2019-01-02T11:34:43.457Z,84.21
2019-01-02T11:35:43.474Z,84.59
2019-01-02T11:36:43.436Z,84.40
2019-01-02T11:37:43.462Z,83.73
2019-01-02T11:38:43.432Z,83.64
2019-01-02T11:39:43.402Z,83.16
2019-01-02T11:40:43.419Z,81.93
2019-01-02T11:41:43.491Z,81.59
2019-01-02T11:42:43.381Z,81.49
2019-01-02T11:43:43.403Z,81.21
2019-01-02T11:44:43.348Z,81.21
2019-01-02T11:45:43.398Z,81.40
2019-01-02T11:46:43.334Z,81.02
2019-01-02T11:47:43.386Z,80.45
2019-01-02T11:48:43.326Z,80.16
2019-01-02T11:49:43.320Z,79.50
2019-01-02T11:50:43.356Z,80.16
2019-01-02T11:51:43.358Z,79.69
2019-01-02T11:52:43.386Z,79.41
2019-01-02T11:53:43.269Z,79.88
2019-01-02T11:54:43.307Z,81.02
2019-01-02T11:55:43.372Z,80.07
2019-01-02T11:56:43.507Z,81.12
2019-01-02T11:57:43.232Z,80.45
2019-01-02T11:58:43.220Z,81.49
2019-01-02T11:59:43.252Z,80.74
2019-01-02T12:00:43.205Z,80.74
2019-01-02T12:01:43.203Z,81.68
2019-01-02T12:02:43.293Z,81.40
2019-01-02T12:03:43.248Z,82.26
2019-01-02T12:04:43.173Z,82.35
2019-01-02T12:05:43.198Z,82.59
2019-01-02T12:06:43.207Z,82.12
2019-01-02T12:07:43.207Z,81.36
2019-01-02T12:08:43.155Z,81.84
2019-01-02T12:09:43.122Z,80.79
2019-01-02T12:10:43.185Z,80.79
2019-01-02T12:11:43.109Z,81.26
2019-01-02T12:12:51.749Z,80.69
2019-01-02T12:14:48.686Z,80.69
2019-01-02T12:15:48.668Z,81.65
2019-01-02T12:16:48.610Z,80.98
2019-01-02T12:17:48.617Z,81.07
2019-01-02T12:18:48.634Z,80.69
2019-01-02T12:19:48.592Z,80.51
2019-01-02T12:20:48.595Z,80.51
2019-01-02T12:21:48.562Z,79.94
2019-01-02T12:22:48.561Z,79.74
2019-01-02T12:23:48.544Z,80.51
2019-01-02T12:24:48.550Z,79.79
2019-01-02T12:25:48.522Z,79.94
2019-01-02T12:26:48.560Z,79.17
2019-01-02T12:27:48.507Z,79.27
2019-01-02T12:28:48.524Z,79.88
2019-01-02T12:29:48.504Z,80.13
2019-01-02T12:30:48.507Z,80.03
2019-01-02T12:31:48.483Z,79.97
2019-01-02T12:32:48.465Z,79.88
2019-01-02T12:33:48.453Z,80.41
2019-01-02T12:34:48.443Z,81.26
2019-01-02T12:35:48.439Z,82.07
2019-01-02T12:36:48.450Z,82.59
2019-01-02T12:37:48.463Z,83.16
2019-01-02T12:38:48.399Z,83.54
2019-01-02T12:39:48.413Z,83.26
2019-01-02T12:40:48.389Z,84.11
2019-01-02T12:41:48.428Z,84.11
2019-01-02T12:42:48.600Z,84.01
2019-01-02T12:43:48.502Z,84.11
2019-01-02T12:44:48.352Z,84.21
2019-01-02T12:45:48.560Z,84.01
2019-01-02T12:46:56.122Z,84.21
2019-01-02T12:49:06.722Z,84.59
2019-01-02T12:50:06.564Z,84.30
2019-01-02T12:51:06.590Z,84.87
2019-01-02T12:52:06.883Z,84.59
2019-01-02T12:53:06.675Z,84.78
2019-01-02T12:54:06.416Z,84.59
2019-01-02T12:55:06.620Z,84.30
2019-01-02T12:56:06.488Z,85.06
2019-01-02T12:57:06.645Z,84.11
2019-01-02T12:58:06.780Z,83.83
2019-01-02T12:59:06.668Z,83.83
2019-01-02T13:00:06.486Z,84.21
2019-01-02T13:01:06.649Z,84.21
2019-01-02T13:02:06.548Z,84.40
2019-01-02T13:03:06.581Z,83.73
2019-01-02T13:04:07.169Z,84.21
2019-01-02T13:05:06.701Z,83.97
2019-01-02T13:06:06.557Z,83.16
2019-01-02T13:07:06.424Z,82.59
2019-01-02T13:08:06.533Z,82.50
2019-01-02T13:09:06.429Z,82.50
2019-01-02T13:10:06.515Z,83.36
2019-01-02T13:11:06.670Z,83.07
2019-01-02T13:12:06.495Z,83.07
2019-01-02T13:13:06.473Z,83.07
2019-01-02T13:14:06.618Z,83.16
2019-01-02T13:15:06.385Z,83.45
2019-01-02T13:16:06.684Z,83.26
2019-01-02T13:17:06.226Z,82.59
2019-01-02T13:18:06.467Z,82.21
2019-01-02T13:19:07.037Z,82.78
2019-01-02T13:20:06.565Z,82.59
2019-01-02T13:21:06.640Z,81.93
2019-01-02T13:22:06.520Z,81.36
2019-01-02T13:23:06.413Z,81.45
2019-01-02T13:24:06.180Z,81.26
2019-01-02T13:25:06.169Z,81.45
2019-01-02T13:26:06.189Z,80.60
2019-01-02T13:27:06.222Z,80.60
2019-01-02T13:28:06.161Z,80.60
2019-01-02T13:29:06.150Z,80.03
2019-01-02T13:30:06.113Z,79.46
2019-01-02T13:31:06.104Z,79.46
2019-01-02T13:32:06.095Z,78.70
2019-01-02T13:33:06.113Z,78.32
2019-01-02T13:34:06.073Z,78.13
2019-01-02T13:35:06.372Z,78.51
2019-01-02T13:36:06.074Z,78.99
2019-01-02T13:37:06.052Z,79.27
2019-01-02T13:38:06.088Z,78.89
2019-01-02T13:39:06.038Z,78.89
2019-01-02T13:40:06.052Z,79.36
2019-01-02T13:41:06.012Z,78.61
2019-01-02T13:42:06.016Z,77.84
2019-01-02T13:43:06.007Z,78.13
2019-01-02T13:44:06.001Z,77.56
2019-01-02T13:45:06.019Z,78.70
2019-01-02T13:46:05.975Z,77.94
2019-01-02T13:47:05.982Z,77.75
2019-01-02T13:48:05.955Z,76.84
2019-01-02T13:49:05.949Z,76.84
2019-01-02T13:50:05.938Z,77.03
2019-01-02T13:51:05.928Z,76.93
2019-01-02T13:52:05.948Z,76.71
2019-01-02T13:53:05.912Z,76.42
2019-01-02T13:54:05.895Z,76.56
2019-01-02T13:55:05.886Z,76.27
2019-01-02T13:56:05.880Z,76.23
2019-01-02T13:57:05.907Z,75.95
2019-01-02T13:58:05.865Z,75.95
2019-01-02T13:59:05.850Z,76.23
2019-01-02T14:00:05.860Z,76.71
2019-01-02T14:01:05.835Z,76.90
2019-01-02T14:02:05.830Z,77.47
2019-01-02T14:03:05.871Z,76.32
2019-01-02T14:04:05.817Z,76.42
2019-01-02T14:05:05.816Z,76.23
2019-01-02T14:06:05.790Z,76.61
2019-01-02T14:07:05.787Z,75.47
2019-01-02T14:08:05.800Z,75.95
2019-01-02T14:09:05.770Z,76.90
2019-01-02T14:10:05.774Z,76.61
2019-01-02T14:11:05.789Z,76.42
2019-01-02T14:12:05.749Z,76.80
2019-01-02T14:13:05.722Z,77.09
2019-01-02T14:14:05.806Z,77.18
2019-01-02T14:15:05.739Z,77.28
2019-01-02T14:16:05.695Z,77.66
2019-01-02T14:17:05.697Z,77.18
2019-01-02T14:18:05.689Z,77.56
2019-01-02T14:19:05.737Z,77.56
2019-01-02T14:20:05.693Z,78.03
2019-01-02T14:21:05.656Z,77.56
2019-01-02T14:22:05.677Z,78.32
2019-01-02T14:23:05.635Z,78.95
2019-01-02T14:24:05.632Z,78.51
2019-01-02T14:25:05.636Z,79.08
2019-01-02T14:26:05.654Z,78.70
2019-01-02T14:27:05.602Z,78.80
2019-01-02T14:28:05.644Z,79.27
2019-01-02T14:29:05.579Z,79.46
2019-01-02T14:30:05.584Z,79.61
2019-01-02T14:31:05.598Z,79.90
2019-01-02T14:32:05.557Z,80.08
2019-01-02T14:33:05.567Z,79.84
2019-01-02T14:34:05.539Z,80.51
2019-01-02T14:35:05.528Z,80.32
2019-01-02T14:36:05.520Z,79.84
2019-01-02T14:37:05.508Z,79.99
2019-01-02T14:38:05.504Z,79.80
2019-01-02T14:39:05.506Z,80.46
2019-01-02T14:40:05.479Z,80.37
2019-01-02T14:41:05.474Z,80.37
2019-01-02T14:42:05.453Z,79.80
2019-01-02T14:43:05.456Z,80.65
2019-01-02T14:44:05.441Z,80.46
2019-01-02T14:45:05.434Z,79.42
2019-01-02T14:46:05.422Z,79.04
2019-01-02T14:47:05.450Z,77.62
2019-01-02T14:48:05.411Z,76.67
2019-01-02T14:49:05.427Z,75.62
2019-01-02T14:50:05.391Z,75.91
2019-01-02T14:51:05.374Z,76.10
2019-01-02T14:52:05.366Z,76.20
2019-01-02T14:53:05.364Z,75.53
2019-01-02T14:54:05.353Z,74.87
2019-01-02T14:56:37.491Z,74.96
2019-01-02T14:57:37.460Z,75.15
2019-01-02T14:58:47.966Z,75.43
2019-01-02T15:00:41.935Z,75.72
2019-01-02T15:01:41.939Z,75.34
2019-01-02T15:02:41.910Z,76.20
2019-01-02T15:03:41.899Z,75.34
2019-01-02T15:04:41.915Z,75.15
2019-01-02T15:05:41.877Z,76.10
2019-01-02T15:06:41.865Z,76.29
2019-01-02T15:07:41.869Z,76.10
2019-01-02T15:08:41.854Z,75.62
2019-01-02T15:09:41.859Z,75.02
2019-01-02T15:10:41.846Z,75.62
2019-01-02T15:11:41.851Z,76.01
2019-01-02T15:12:41.803Z,76.15
2019-01-02T15:13:41.798Z,76.06
2019-01-02T15:14:41.794Z,76.06
2019-01-02T15:15:41.800Z,76.34
2019-01-02T15:16:44.656Z,76.15
2019-01-02T15:17:41.768Z,76.54
2019-01-02T15:18:41.754Z,76.73
2019-01-02T15:19:41.751Z,77.48
2019-01-02T15:20:41.764Z,80.08
2019-01-02T15:21:41.742Z,78.19
2019-01-02T15:22:41.847Z,78.05
2019-01-02T15:23:41.739Z,78.34
2019-01-02T15:24:41.752Z,77.96
2019-01-02T15:25:41.731Z,78.53
2019-01-02T15:26:41.770Z,78.24
2019-01-02T15:27:41.685Z,78.15
2019-01-02T15:28:41.704Z,77.86
2019-01-02T15:29:41.678Z,77.86
2019-01-02T15:30:41.654Z,78.05
2019-01-02T15:31:41.705Z,78.24
2019-01-02T15:32:41.631Z,78.15
2019-01-02T15:33:41.640Z,78.05
2019-01-02T15:34:41.629Z,78.81
2019-01-02T15:35:41.618Z,79.10
2019-01-02T15:36:41.602Z,79.28
2019-01-02T15:37:41.571Z,79.10
2019-01-02T15:38:41.556Z,79.38
2019-01-02T15:39:41.573Z,79.19
2019-01-02T15:40:50.753Z,79.57
2019-01-02T15:42:46.858Z,79.28
2019-01-02T15:43:46.007Z,79.28
2019-01-02T15:44:46.058Z,79.38
2019-01-02T15:45:46.001Z,80.24
2019-01-02T15:46:46.013Z,80.43
2019-01-02T15:47:46.326Z,80.43
2019-01-02T15:48:46.198Z,80.90
2019-01-02T15:49:45.964Z,80.90
2019-01-02T15:50:45.960Z,81.09
2019-01-02T15:51:45.933Z,81.37
2019-01-02T15:52:45.923Z,80.71
2019-01-02T15:53:46.387Z,80.62
2019-01-02T15:54:45.957Z,81.56
2019-01-02T15:55:45.896Z,81.47
2019-01-02T15:56:45.949Z,81.37
2019-01-02T15:57:45.874Z,81.27
2019-01-02T15:58:45.971Z,80.80
2019-01-02T15:59:45.985Z,81.18
2019-01-02T16:00:46.074Z,81.47
2019-01-02T16:01:45.927Z,81.85
2019-01-02T16:02:45.923Z,81.37
2019-01-02T16:03:45.819Z,81.75
2019-01-02T16:04:54.713Z,82.04
2019-01-02T16:07:03.083Z,81.85
2019-01-02T16:08:03.020Z,81.66
2019-01-02T16:09:03.009Z,82.47
2019-01-02T16:10:03.026Z,82.56
2019-01-02T16:11:03.031Z,83.42
2019-01-02T16:12:02.989Z,84.12
2019-01-02T16:13:03.011Z,83.61
2019-01-02T16:14:03.051Z,83.27
2019-01-02T16:15:02.959Z,82.70
2019-01-02T16:16:02.964Z,82.51
2019-01-02T16:17:02.936Z,81.99
2019-01-02T16:18:02.919Z,82.75
2019-01-02T16:19:02.910Z,82.37
2019-01-02T16:20:02.900Z,82.85
2019-01-02T16:21:12.051Z,82.94
2019-01-02T16:22:03.217Z,82.56
2019-01-02T16:23:03.059Z,83.23
2019-01-02T16:24:02.869Z,82.94
2019-01-02T16:25:03.252Z,83.13
2019-01-02T16:27:42.258Z,83.23
2019-01-02T16:28:42.854Z,83.04